Time;durP1;ratioP1;P1;durP2;ratioP2;P2;SDS_P1;SDS_P2;PMS_P1;PMS_P2;Temp;Humidity;BMP_temperature;BMP_pressure;BME280_temperature;BME280_humidity;BME280_pressure;Samples;Min_cycle;Max_cycle;Signal;HPM_P1;HPM_P2
2023/02/26 00:01:45;;;;;;;9.57;4.45;;;1.00;78.00;;;;;;5002024;28;20050;-67
2023/02/26 00:04:17;;;;;;;10.73;4.07;;;1.00;78.10;;;;;;5005909;28;20072;-65
2023/02/26 00:06:52;;;;;;;8.52;3.90;;;1.00;78.20;;;;;;5006318;28;20050;-61
2023/02/26 00:09:20;;;;;;;12.00;4.10;;;0.90;78.10;;;;;;5004280;28;20077;-61
2023/02/26 00:11:49;;;;;;;7.78;3.70;;;0.90;78.20;;;;;;5005730;28;20435;-61
2023/02/26 00:14:17;;;;;;;9.60;3.33;;;0.90;78.30;;;;;;5003225;28;20050;-61
2023/02/26 00:17:05;;;;;;;8.90;3.15;;;0.90;78.40;;;;;;4983939;28;20620;-61
2023/02/26 00:19:32;;;;;;;5.55;2.22;;;0.90;78.40;;;;;;5001174;28;20042;-65
2023/02/26 00:22:00;;;;;;;6.30;1.80;;;0.90;78.30;;;;;;5001677;28;20046;-60
2023/02/26 00:24:29;;;;;;;4.07;1.50;;;0.80;78.40;;;;;;5002170;28;20042;-62
2023/02/26 00:26:56;;;;;;;6.38;1.90;;;0.80;78.40;;;;;;5001419;28;20038;-61
2023/02/26 00:29:24;;;;;;;3.92;1.40;;;0.80;78.50;;;;;;4995741;28;20145;-60
2023/02/26 00:31:51;;;;;;;4.55;1.75;;;0.80;78.60;;;;;;4985044;28;20057;-61
2023/02/26 00:34:19;;;;;;;2.97;1.30;;;0.80;78.60;;;;;;5007129;28;20481;-61
2023/02/26 00:36:58;;;;;;;4.82;1.25;;;0.80;78.60;;;;;;5004033;28;20050;-60
2023/02/26 00:39:36;;;;;;;3.75;1.25;;;0.70;78.60;;;;;;5002470;28;20403;-61
2023/02/26 00:42:04;;;;;;;4.47;1.10;;;0.70;78.70;;;;;;4984410;28;20519;-61
2023/02/26 00:44:32;;;;;;;4.15;1.30;;;0.70;78.70;;;;;;5000665;28;20057;-59
2023/02/26 00:47:06;;;;;;;4.40;1.25;;;0.70;78.80;;;;;;5001967;28;20045;-61
2023/02/26 00:49:48;;;;;;;4.40;1.33;;;0.70;78.70;;;;;;4998591;28;20050;-61
2023/02/26 00:52:25;;;;;;;3.63;1.40;;;0.70;78.60;;;;;;5003233;28;20046;-59
2023/02/26 00:54:53;;;;;;;3.22;1.23;;;0.60;79.00;;;;;;5000147;28;20508;-60
2023/02/26 00:57:20;;;;;;;5.57;1.70;;;0.60;78.90;;;;;;5001269;28;20151;-61
2023/02/26 00:59:47;;;;;;;4.32;1.85;;;0.60;78.80;;;;;;5001257;28;20180;-62
2023/02/26 01:02:14;;;;;;;4.30;2.00;;;0.60;78.90;;;;;;5003413;28;20125;-60
2023/02/26 01:04:42;;;;;;;4.93;2.28;;;0.50;79.00;;;;;;4984319;28;20081;-61
2023/02/26 01:07:10;;;;;;;7.63;2.45;;;0.50;78.90;;;;;;4985469;28;20045;-62
2023/02/26 01:09:37;;;;;;;4.90;2.25;;;0.50;79.00;;;;;;4975519;28;20054;-61
2023/02/26 01:12:11;;;;;;;6.82;2.13;;;0.50;79.10;;;;;;4999910;28;20046;-60
2023/02/26 01:14:39;;;;;;;3.17;1.73;;;0.50;79.30;;;;;;5001816;28;20129;-60
2023/02/26 01:17:13;;;;;;;4.43;2.00;;;0.40;79.40;;;;;;5005174;28;20050;-61
2023/02/26 01:19:47;;;;;;;5.38;1.90;;;0.40;79.30;;;;;;4982793;28;20100;-60
2023/02/26 01:22:19;;;;;;;5.47;2.08;;;0.40;79.30;;;;;;5004820;28;20046;-62
2023/02/26 01:24:48;;;;;;;3.85;1.63;;;0.40;79.30;;;;;;4998538;28;20057;-62
2023/02/26 01:27:16;;;;;;;7.28;2.45;;;0.30;79.40;;;;;;5004834;28;20073;-61
2023/02/26 01:29:44;;;;;;;9.25;2.88;;;0.40;79.40;;;;;;5007725;28;20042;-62
2023/02/26 01:32:18;;;;;;;7.88;2.97;;;0.40;79.50;;;;;;5004066;28;20054;-61
2023/02/26 01:34:52;;;;;;;8.85;3.22;;;0.40;79.40;;;;;;5005570;28;20064;-61
2023/02/26 01:37:27;;;;;;;8.60;3.50;;;0.40;79.20;;;;;;5007278;28;20049;-61
2023/02/26 01:40:19;;;;;;;8.88;3.10;;;0.40;79.40;;;;;;5004318;28;20122;-60
2023/02/26 01:42:52;;;;;;;8.73;2.85;;;0.30;79.40;;;;;;4988763;28;20049;-61
2023/02/26 01:45:26;;;;;;;7.65;2.40;;;0.30;79.20;;;;;;5006346;28;20396;-60
2023/02/26 01:48:00;;;;;;;11.27;3.20;;;0.30;79.30;;;;;;5002343;28;20053;-60
2023/02/26 01:50:34;;;;;;;7.65;2.75;;;0.20;79.20;;;;;;4989661;28;20061;-60
2023/02/26 01:53:17;;;;;;;9.65;2.95;;;0.20;79.40;;;;;;4986648;28;20058;-60
2023/02/26 01:55:49;;;;;;;10.15;3.22;;;0.20;79.50;;;;;;5001749;28;20088;-61
2023/02/26 01:58:18;;;;;;;11.13;3.25;;;0.20;79.30;;;;;;4985571;28;20058;-59
2023/02/26 02:00:45;;;;;;;10.07;3.20;;;0.10;79.40;;;;;;4995076;28;20049;-60
2023/02/26 02:03:12;;;;;;;9.23;3.63;;;0.10;79.50;;;;;;5003658;28;20045;-61
2023/02/26 02:05:43;;;;;;;8.65;3.10;;;0.10;79.50;;;;;;4984663;28;20045;-61
2023/02/26 02:08:12;;;;;;;10.75;3.83;;;0.10;79.50;;;;;;4988651;28;20050;-60
2023/02/26 02:10:43;;;;;;;9.15;3.35;;;0.10;79.50;;;;;;5008118;28;20132;-61
2023/02/26 02:13:19;;;;;;;8.48;2.85;;;0.10;79.60;;;;;;5005148;28;20046;-59
2023/02/26 02:16:00;;;;;;;7.68;3.10;;;0.10;79.60;;;;;;4987076;28;20053;-61
2023/02/26 02:18:38;;;;;;;7.55;3.22;;;0.00;79.60;;;;;;5005786;28;20056;-60
2023/02/26 02:21:50;;;;;;;8.48;3.08;;;0.00;79.70;;;;;;5006335;28;20172;-60
2023/02/26 02:24:30;;;;;;;7.15;2.20;;;0.00;79.90;;;;;;4944976;28;20059;-61
2023/02/26 02:27:03;;;;;;;6.93;2.35;;;0.00;79.70;;;;;;4981482;28;20074;-60
2023/02/26 02:30:03;;;;;;;4.65;2.25;;;0.00;79.70;;;;;;5006073;28;20684;-60
2023/02/26 02:32:39;;;;;;;6.78;2.50;;;0.00;79.80;;;;;;4973320;28;20058;-63
2023/02/26 02:35:13;;;;;;;6.35;2.00;;;0.00;79.80;;;;;;4970221;28;20054;-62
2023/02/26 02:37:46;;;;;;;6.75;1.80;;;0.00;79.70;;;;;;4984144;28;20050;-61
2023/02/26 02:40:16;;;;;;;5.30;2.15;;;-3276.70;79.70;;;;;;4986436;28;20049;-61
2023/02/26 02:42:46;;;;;;;4.20;1.85;;;-3276.70;79.80;;;;;;4965811;28;20077;-61
2023/02/26 02:45:18;;;;;;;6.45;2.13;;;-3276.70;79.90;;;;;;4966605;28;20052;-60
2023/02/26 02:47:50;;;;;;;5.53;2.15;;;-3276.70;79.80;;;;;;4964396;28;20625;-61
2023/02/26 02:50:25;;;;;;;4.95;1.90;;;-3276.70;79.70;;;;;;4964550;28;20046;-60
2023/02/26 02:52:57;;;;;;;4.55;1.80;;;-3276.70;79.70;;;;;;4979635;28;20396;-61
2023/02/26 02:55:27;;;;;;;4.03;1.50;;;-3276.70;79.60;;;;;;4988541;28;20148;-60
2023/02/26 02:58:01;;;;;;;6.05;2.50;;;-3276.60;79.70;;;;;;4970038;28;20129;-60
2023/02/26 03:00:34;;;;;;;5.30;1.42;;;-3276.60;79.80;;;;;;4987282;28;20053;-60
2023/02/26 03:03:09;;;;;;;3.08;1.45;;;-3276.60;79.80;;;;;;4987283;28;20132;-61
2023/02/26 03:05:36;;;;;;;5.10;1.73;;;-3276.60;79.90;;;;;;4969290;28;20057;-73
2023/02/26 03:08:08;;;;;;;4.75;1.75;;;-3276.60;80.20;;;;;;4988440;28;20050;-71
2023/02/26 03:10:36;;;;;;;5.25;1.85;;;-3276.60;80.00;;;;;;4989062;28;20466;-71
2023/02/26 03:13:04;;;;;;;4.90;2.00;;;-3276.60;80.30;;;;;;4984423;28;20039;-72
2023/02/26 03:15:37;;;;;;;5.75;2.15;;;-3276.60;80.10;;;;;;4988981;28;20065;-71
2023/02/26 03:18:18;;;;;;;7.88;2.05;;;-3276.60;80.00;;;;;;4980581;28;20061;-72
2023/02/26 03:20:53;;;;;;;7.60;1.63;;;-3276.60;80.00;;;;;;4967749;28;20848;-72
2023/02/26 03:23:24;;;;;;;6.07;1.80;;;-3276.60;79.80;;;;;;4986344;28;20482;-72
2023/02/26 03:25:56;;;;;;;5.55;1.75;;;-3276.50;79.90;;;;;;4965060;28;20046;-71
2023/02/26 03:28:30;;;;;;;3.30;1.73;;;-3276.50;80.00;;;;;;4985748;28;20042;-71
2023/02/26 03:31:05;;;;;;;3.47;1.67;;;-3276.50;80.10;;;;;;4972519;28;20061;-73
2023/02/26 03:33:41;;;;;;;5.05;1.42;;;-3276.50;80.10;;;;;;4998128;28;21142;-71
2023/02/26 03:36:21;;;;;;;3.70;1.10;;;-3276.50;80.10;;;;;;5003463;28;20073;-71
2023/02/26 03:39:05;;;;;;;3.40;1.25;;;-3276.50;80.10;;;;;;5004488;28;20049;-73
2023/02/26 03:41:38;;;;;;;4.68;1.40;;;-3276.50;80.10;;;;;;4988662;28;20050;-71
2023/02/26 03:44:09;;;;;;;4.40;1.27;;;-3276.60;79.70;;;;;;4988079;28;20080;-72
2023/02/26 03:46:42;;;;;;;3.60;1.20;;;-3276.60;79.70;;;;;;4988163;28;20459;-71
2023/02/26 03:49:14;;;;;;;6.10;1.20;;;-3276.60;80.20;;;;;;4986390;28;20050;-71
2023/02/26 03:51:44;;;;;;;2.35;0.95;;;-3276.60;80.30;;;;;;4987503;28;20046;-66
2023/02/26 03:54:40;;;;;;;5.25;0.90;;;-3276.60;80.60;;;;;;4997102;28;20092;-66
2023/02/26 03:57:37;;;;;;;2.58;0.98;;;-3276.60;80.80;;;;;;4985599;28;20050;-66
2023/02/26 04:00:44;;;;;;;3.60;1.00;;;-3276.60;81.00;;;;;;4956918;28;20039;-67
2023/02/26 04:03:15;;;;;;;3.63;1.35;;;-3276.70;81.10;;;;;;4976694;28;21083;-67
2023/02/26 04:05:48;;;;;;;2.92;1.17;;;-3276.70;80.80;;;;;;4999277;28;20139;-71
2023/02/26 04:08:15;;;;;;;4.70;1.30;;;-3276.60;80.60;;;;;;4988599;28;20129;-71
2023/02/26 04:10:45;;;;;;;3.25;1.00;;;-3276.70;80.80;;;;;;5004177;28;20057;-71
2023/02/26 04:13:12;;;;;;;4.63;1.30;;;-3276.60;80.80;;;;;;4987448;28;20101;-72
2023/02/26 04:15:39;;;;;;;3.13;1.10;;;-3276.70;80.90;;;;;;4982761;28;20053;-71
2023/02/26 04:18:06;;;;;;;4.35;1.23;;;-3276.60;81.00;;;;;;4998443;28;20500;-72
2023/02/26 04:20:33;;;;;;;3.40;1.17;;;-3276.70;81.50;;;;;;4999475;28;20131;-72
2023/02/26 04:23:02;;;;;;;4.65;1.17;;;-3276.70;81.50;;;;;;5006075;28;20054;-71
2023/02/26 04:25:30;;;;;;;5.38;0.98;;;-3276.70;81.60;;;;;;5004353;28;20136;-70
2023/02/26 04:27:59;;;;;;;4.47;1.20;;;-3276.70;81.90;;;;;;4985465;28;20054;-70
2023/02/26 04:30:26;;;;;;;5.72;1.20;;;-3276.70;81.70;;;;;;4986824;28;20062;-63
2023/02/26 04:32:53;;;;;;;2.17;1.20;;;-3276.70;81.80;;;;;;4991943;28;20081;-63
2023/02/26 04:35:20;;;;;;;5.10;1.23;;;-3276.70;81.70;;;;;;4978003;28;20097;-62
2023/02/26 04:37:46;;;;;;;4.88;1.17;;;-3276.70;81.40;;;;;;4991411;28;20053;-61
2023/02/26 04:40:15;;;;;;;5.10;1.08;;;-3276.70;81.20;;;;;;4981710;28;20405;-62
2023/02/26 04:42:42;;;;;;;3.65;1.00;;;-3276.70;81.30;;;;;;4975671;28;20125;-62
2023/02/26 04:45:10;;;;;;;2.35;1.15;;;0.00;81.10;;;;;;4975091;28;20057;-63
2023/02/26 04:47:39;;;;;;;3.10;0.90;;;-3276.70;80.90;;;;;;4973673;28;20188;-61
2023/02/26 04:50:07;;;;;;;3.75;0.98;;;-3276.70;81.30;;;;;;4977632;28;20046;-61
2023/02/26 04:52:34;;;;;;;2.20;0.85;;;-3276.70;81.40;;;;;;4972982;28;20129;-63
2023/02/26 04:55:01;;;;;;;2.70;1.00;;;-3276.70;81.60;;;;;;4995796;28;20042;-62
2023/02/26 04:57:30;;;;;;;5.45;1.40;;;-3276.70;82.00;;;;;;4977222;28;20038;-61
2023/02/26 04:59:57;;;;;;;4.13;1.25;;;-3276.70;82.40;;;;;;4965764;28;20489;-60
2023/02/26 05:02:28;;;;;;;3.60;1.20;;;0.00;82.40;;;;;;4993116;28;20128;-72
2023/02/26 05:04:55;;;;;;;2.63;0.95;;;0.00;82.30;;;;;;4976485;28;20064;-72
2023/02/26 05:07:23;;;;;;;4.85;1.23;;;0.00;82.20;;;;;;4975845;28;20153;-61
2023/02/26 05:09:50;;;;;;;5.25;1.02;;;0.00;82.60;;;;;;4996925;28;20506;-60
2023/02/26 05:12:17;;;;;;;5.78;1.27;;;0.00;82.60;;;;;;4997123;28;20045;-61
2023/02/26 05:14:46;;;;;;;4.13;1.23;;;0.00;82.50;;;;;;4993262;28;20046;-63
2023/02/26 05:17:13;;;;;;;4.68;1.00;;;0.10;82.70;;;;;;4971203;28;21048;-65
2023/02/26 05:19:39;;;;;;;6.72;1.40;;;0.10;82.30;;;;;;4947370;28;21002;-65
2023/02/26 05:22:06;;;;;;;5.88;1.10;;;0.10;82.10;;;;;;4973576;28;20078;-64
2023/02/26 05:24:34;;;;;;;5.80;1.52;;;0.20;81.80;;;;;;4968373;28;20548;-66
2023/02/26 05:27:01;;;;;;;4.90;1.60;;;0.20;81.40;;;;;;4990219;28;20097;-64
2023/02/26 05:29:29;;;;;;;5.45;1.30;;;0.20;81.20;;;;;;4969890;28;20060;-65
2023/02/26 05:31:59;;;;;;;3.42;1.42;;;0.10;81.10;;;;;;4980201;28;20505;-66
2023/02/26 05:34:26;;;;;;;4.35;1.30;;;0.10;80.90;;;;;;4988550;28;20049;-66
2023/02/26 05:36:55;;;;;;;3.42;1.00;;;0.20;80.50;;;;;;5005135;28;20465;-65
2023/02/26 05:39:21;;;;;;;4.38;1.23;;;0.10;80.30;;;;;;4989474;28;20157;-64
2023/02/26 05:41:50;;;;;;;3.03;1.30;;;0.10;80.20;;;;;;5006121;28;20053;-65
2023/02/26 05:44:17;;;;;;;5.22;1.30;;;0.10;80.20;;;;;;5006033;28;20054;-65
2023/02/26 05:46:44;;;;;;;4.10;1.25;;;0.10;80.10;;;;;;5008223;28;20050;-65
2023/02/26 05:49:12;;;;;;;3.90;1.23;;;0.00;80.30;;;;;;5009166;28;20649;-67
2023/02/26 05:51:41;;;;;;;4.60;1.27;;;0.10;80.30;;;;;;5009575;28;20054;-71
2023/02/26 05:54:08;;;;;;;2.47;1.20;;;0.00;80.40;;;;;;5010213;28;20066;-71
2023/02/26 05:56:36;;;;;;;3.13;1.17;;;0.00;80.70;;;;;;5009698;28;20096;-70
2023/02/26 05:59:03;;;;;;;2.83;1.10;;;0.00;80.70;;;;;;5009855;28;20058;-71
2023/02/26 06:01:30;;;;;;;4.00;1.23;;;0.00;80.50;;;;;;5009451;28;21312;-67
2023/02/26 06:03:57;;;;;;;4.35;1.33;;;0.00;80.50;;;;;;5006825;28;20045;-66
2023/02/26 06:06:25;;;;;;;2.72;0.90;;;0.00;80.60;;;;;;5007851;28;20401;-62
2023/02/26 06:08:52;;;;;;;4.05;1.40;;;0.00;80.70;;;;;;5006588;28;20058;-62
2023/02/26 06:11:19;;;;;;;3.03;1.17;;;0.00;80.70;;;;;;5008274;28;20058;-61
2023/02/26 06:13:46;;;;;;;4.10;1.10;;;0.00;80.80;;;;;;4999159;28;20046;-61
2023/02/26 06:16:13;;;;;;;2.90;1.05;;;0.00;80.90;;;;;;5005692;28;20228;-65
2023/02/26 06:18:40;;;;;;;6.35;1.40;;;0.00;80.80;;;;;;5007286;28;20064;-67
2023/02/26 06:21:08;;;;;;;2.58;1.15;;;0.00;80.80;;;;;;5001297;28;20128;-66
2023/02/26 06:23:36;;;;;;;4.50;0.95;;;0.00;80.90;;;;;;5007040;28;20049;-67
2023/02/26 06:26:03;;;;;;;4.65;1.23;;;0.00;80.80;;;;;;5006495;28;20042;-64
2023/02/26 06:28:33;;;;;;;2.97;1.15;;;0.00;81.00;;;;;;5003239;28;20045;-64
2023/02/26 06:31:00;;;;;;;4.00;1.05;;;0.00;81.30;;;;;;5008374;28;20132;-61
2023/02/26 06:33:28;;;;;;;4.25;1.40;;;0.00;81.40;;;;;;5007643;28;20038;-62
2023/02/26 06:35:56;;;;;;;3.15;1.13;;;-3276.70;81.50;;;;;;5009710;28;20045;-72
2023/02/26 06:38:23;;;;;;;5.20;1.30;;;0.00;81.60;;;;;;5008253;28;20100;-72
2023/02/26 06:40:52;;;;;;;7.70;1.80;;;0.00;81.70;;;;;;5007700;28;20081;-71
2023/02/26 06:43:18;;;;;;;5.43;1.63;;;0.00;81.40;;;;;;5008468;28;20060;-72
2023/02/26 06:45:45;;;;;;;2.67;1.17;;;0.00;81.30;;;;;;5004900;28;20064;-61
2023/02/26 06:48:12;;;;;;;3.28;1.40;;;0.10;81.10;;;;;;5007328;28;20049;-61
2023/02/26 06:50:39;;;;;;;2.92;1.08;;;0.20;80.80;;;;;;5008367;28;20067;-60
2023/02/26 06:53:06;;;;;;;3.70;1.23;;;0.20;80.60;;;;;;5007675;28;20068;-60
2023/02/26 06:55:33;;;;;;;3.42;1.30;;;0.20;80.90;;;;;;5008063;28;20045;-67
2023/02/26 06:58:02;;;;;;;3.95;1.30;;;0.30;80.60;;;;;;5007125;28;20125;-67
2023/02/26 07:00:29;;;;;;;4.65;1.55;;;0.30;80.30;;;;;;5008689;28;20044;-62
2023/02/26 07:02:55;;;;;;;5.50;1.30;;;0.30;80.10;;;;;;5007757;28;20042;-61
2023/02/26 07:05:22;;;;;;;2.00;1.10;;;0.30;80.20;;;;;;5008274;28;20061;-62
2023/02/26 07:07:49;;;;;;;6.32;1.73;;;0.40;80.10;;;;;;5007864;28;20077;-61
2023/02/26 07:10:16;;;;;;;3.90;1.73;;;0.40;80.00;;;;;;5008859;28;20054;-62
2023/02/26 07:12:43;;;;;;;5.65;1.75;;;0.40;80.10;;;;;;5008683;28;20081;-62
2023/02/26 07:15:12;;;;;;;2.15;1.00;;;0.50;79.90;;;;;;5008196;28;20129;-61
2023/02/26 07:17:39;;;;;;;4.95;1.25;;;0.40;80.00;;;;;;5007567;28;20050;-62
2023/02/26 07:20:09;;;;;;;3.20;1.20;;;0.50;79.90;;;;;;5008234;28;20050;-63
2023/02/26 07:22:36;;;;;;;2.10;1.00;;;0.50;79.50;;;;;;5002068;28;20049;-61
2023/02/26 07:25:04;;;;;;;3.75;1.40;;;0.60;79.50;;;;;;5007831;28;20503;-62
2023/02/26 07:27:32;;;;;;;2.35;1.17;;;0.60;79.20;;;;;;5006935;28;20050;-61
2023/02/26 07:29:59;;;;;;;4.38;1.30;;;0.60;79.50;;;;;;5005127;28;20050;-61
2023/02/26 07:32:27;;;;;;;2.28;1.02;;;0.60;79.50;;;;;;4992971;28;20169;-60
2023/02/26 07:34:54;;;;;;;3.53;1.00;;;0.70;79.60;;;;;;4994364;28;20053;-61
2023/02/26 07:37:21;;;;;;;4.32;1.13;;;0.70;79.70;;;;;;4992273;28;20074;-61
2023/02/26 07:39:48;;;;;;;2.45;1.00;;;0.70;79.20;;;;;;4993323;28;20136;-61
2023/02/26 07:42:15;;;;;;;3.25;0.93;;;0.70;78.90;;;;;;4986126;28;20050;-62
2023/02/26 07:44:42;;;;;;;4.43;1.30;;;0.70;78.70;;;;;;4976071;28;20169;-61
2023/02/26 07:47:10;;;;;;;3.30;1.23;;;0.70;78.80;;;;;;4994093;28;20053;-62
2023/02/26 07:49:39;;;;;;;3.08;1.05;;;0.70;78.60;;;;;;4991460;28;20097;-62
2023/02/26 07:52:08;;;;;;;5.90;1.55;;;0.70;78.50;;;;;;4996382;28;20049;-61
2023/02/26 07:54:35;;;;;;;2.88;1.10;;;0.70;78.30;;;;;;4991488;28;20050;-61
2023/02/26 07:57:02;;;;;;;3.35;1.15;;;0.70;78.40;;;;;;4993703;28;20054;-62
2023/02/26 07:59:29;;;;;;;6.32;1.30;;;0.70;78.10;;;;;;4994691;28;20050;-63
2023/02/26 08:01:56;;;;;;;3.05;1.05;;;0.70;78.30;;;;;;4994108;28;20412;-62
2023/02/26 08:04:23;;;;;;;3.47;1.20;;;0.80;78.30;;;;;;4995002;28;20065;-63
2023/02/26 08:06:53;;;;;;;4.57;1.20;;;0.90;78.10;;;;;;4992317;28;20047;-63
2023/02/26 08:09:20;;;;;;;4.93;1.52;;;0.90;78.20;;;;;;4995800;28;20109;-62
2023/02/26 08:11:47;;;;;;;3.80;1.20;;;1.00;77.90;;;;;;4991689;28;20052;-61
2023/02/26 08:14:15;;;;;;;2.20;0.95;;;1.00;77.60;;;;;;4976613;28;20102;-62
2023/02/26 08:16:42;;;;;;;2.95;1.35;;;0.90;77.60;;;;;;4989840;28;20448;-61
2023/02/26 08:19:09;;;;;;;3.60;1.60;;;0.90;77.70;;;;;;4993431;28;20046;-61
2023/02/26 08:21:36;;;;;;;2.90;1.02;;;0.90;77.40;;;;;;4991370;28;20061;-61
2023/02/26 08:24:05;;;;;;;1.90;0.80;;;0.90;77.20;;;;;;4990665;28;20053;-63
2023/02/26 08:26:35;;;;;;;3.03;1.00;;;0.90;77.10;;;;;;4992349;28;20054;-62
2023/02/26 08:29:03;;;;;;;2.72;0.70;;;1.00;76.80;;;;;;4992602;28;20050;-62
2023/02/26 08:31:30;;;;;;;2.55;1.10;;;1.00;76.70;;;;;;4997580;28;20050;-61
2023/02/26 08:33:58;;;;;;;3.30;0.95;;;1.10;76.80;;;;;;5007928;28;20041;-61
2023/02/26 08:36:25;;;;;;;4.63;1.20;;;1.20;76.70;;;;;;5009583;28;20060;-62
2023/02/26 08:38:52;;;;;;;2.38;1.00;;;1.30;76.80;;;;;;5006462;28;20184;-62
2023/02/26 08:41:20;;;;;;;3.05;0.90;;;1.40;76.40;;;;;;5005638;28;20072;-61
2023/02/26 08:43:47;;;;;;;4.43;1.20;;;1.40;76.10;;;;;;5007043;28;20545;-62
2023/02/26 08:46:14;;;;;;;4.55;1.30;;;1.50;75.80;;;;;;5008793;28;20046;-63
2023/02/26 08:48:41;;;;;;;4.47;1.30;;;1.50;75.50;;;;;;5009621;28;20041;-63
2023/02/26 08:51:08;;;;;;;4.72;1.30;;;1.60;75.20;;;;;;5010158;28;20046;-63
2023/02/26 08:53:35;;;;;;;4.25;1.50;;;1.60;74.90;;;;;;5009124;28;20400;-62
2023/02/26 08:56:02;;;;;;;3.70;1.08;;;1.60;75.00;;;;;;5008888;28;20512;-62
2023/02/26 08:58:31;;;;;;;4.93;1.10;;;1.70;74.60;;;;;;5007738;28;20050;-62
2023/02/26 09:00:58;;;;;;;4.15;1.15;;;1.70;74.30;;;;;;5006914;28;20045;-62
2023/02/26 09:03:25;;;;;;;2.78;0.95;;;1.70;73.70;;;;;;5009402;28;20046;-62
2023/02/26 09:05:52;;;;;;;3.53;1.00;;;1.80;73.50;;;;;;5007998;28;20642;-64
2023/02/26 09:08:20;;;;;;;4.30;0.90;;;1.90;73.10;;;;;;5006834;28;20065;-62
2023/02/26 09:10:47;;;;;;;1.98;0.90;;;1.90;73.30;;;;;;5006130;28;20057;-62
2023/02/26 09:13:15;;;;;;;1.95;0.93;;;2.20;72.80;;;;;;5008135;28;20408;-62
2023/02/26 09:15:43;;;;;;;2.65;0.80;;;2.20;72.00;;;;;;5005488;28;20052;-62
2023/02/26 09:18:14;;;;;;;4.28;0.95;;;2.30;71.70;;;;;;4980602;28;20128;-63
2023/02/26 09:20:42;;;;;;;2.97;0.60;;;2.50;71.60;;;;;;5007285;28;20050;-62
2023/02/26 09:23:09;;;;;;;1.88;0.80;;;2.70;71.30;;;;;;5006294;28;20050;-63
2023/02/26 09:25:36;;;;;;;2.17;0.80;;;2.70;71.30;;;;;;5009956;28;20042;-62
2023/02/26 09:28:03;;;;;;;2.17;0.90;;;2.80;70.70;;;;;;5007008;28;20050;-61
2023/02/26 09:30:32;;;;;;;3.60;0.88;;;3.10;69.70;;;;;;5007399;28;20046;-62
2023/02/26 09:33:00;;;;;;;2.38;0.85;;;3.20;69.00;;;;;;4989084;28;20114;-63
2023/02/26 09:35:33;;;;;;;3.00;1.00;;;3.20;68.60;;;;;;4990252;28;20053;-65
2023/02/26 09:38:00;;;;;;;2.83;1.00;;;3.30;67.90;;;;;;4988691;28;20054;-63
2023/02/26 09:40:44;;;;;;;3.67;0.82;;;3.30;67.20;;;;;;4989146;28;20129;-63
2023/02/26 09:43:34;;;;;;;3.05;0.77;;;3.30;67.30;;;;;;4983353;28;20042;-64
2023/02/26 09:46:05;;;;;;;2.53;0.82;;;3.30;66.40;;;;;;4983197;28;20112;-62
2023/02/26 09:48:38;;;;;;;3.17;0.80;;;3.40;66.00;;;;;;4987998;28;20058;-62
2023/02/26 09:51:08;;;;;;;2.85;0.80;;;3.50;66.30;;;;;;4984317;28;20070;-63
2023/02/26 09:53:39;;;;;;;;;;;3.70;65.60;;;;;;4989143;28;20044;-63
2023/02/26 09:56:13;;;;;;;3.35;0.98;;;3.80;65.40;;;;;;4988173;28;19933;-62
2023/02/26 09:58:41;;;;;;;2.95;0.88;;;3.90;65.40;;;;;;4985772;28;20054;-64
2023/02/26 10:01:14;;;;;;;2.58;0.95;;;3.90;65.10;;;;;;4987474;28;20505;-62
2023/02/26 10:03:57;;;;;;;4.30;1.10;;;4.00;64.60;;;;;;4985770;28;20061;-64
2023/02/26 10:06:26;;;;;;;3.63;1.10;;;4.10;64.50;;;;;;4985745;28;20054;-63
2023/02/26 10:09:29;;;;;;;2.47;1.15;;;4.20;64.00;;;;;;4988820;28;20103;-62
2023/02/26 10:12:00;;;;;;;3.35;1.33;;;4.30;63.10;;;;;;4980575;28;20050;-62
2023/02/26 10:14:35;;;;;;;3.10;0.93;;;4.40;63.80;;;;;;4987861;28;20035;-62
2023/02/26 10:17:07;;;;;;;3.08;1.20;;;4.50;63.60;;;;;;4985615;28;20097;-61
2023/02/26 10:19:40;;;;;;;2.13;0.75;;;4.70;63.60;;;;;;4986403;28;20038;-60
2023/02/26 10:22:25;;;;;;;1.63;0.88;;;4.70;62.30;;;;;;4986981;28;20062;-62
2023/02/26 10:24:58;;;;;;;1.67;0.60;;;4.80;62.10;;;;;;4962732;28;20519;-62
2023/02/26 10:27:37;;;;;;;2.30;0.70;;;4.90;60.00;;;;;;4987644;28;20046;-63
2023/02/26 10:30:08;;;;;;;2.03;0.63;;;4.90;60.20;;;;;;4988032;28;20042;-62
2023/02/26 10:32:40;;;;;;;1.35;0.50;;;4.80;60.10;;;;;;4993110;28;20058;-61
2023/02/26 10:35:14;;;;;;;4.20;0.75;;;4.70;60.20;;;;;;4990404;28;20053;-63
2023/02/26 10:37:47;;;;;;;1.83;0.45;;;4.60;59.50;;;;;;4993273;28;20046;-61
2023/02/26 10:40:19;;;;;;;1.75;0.60;;;4.50;59.90;;;;;;4993942;28;20042;-62
2023/02/26 10:42:50;;;;;;;2.72;0.60;;;4.50;60.90;;;;;;4994276;28;20053;-61
2023/02/26 10:45:28;;;;;;;2.78;0.50;;;4.50;60.30;;;;;;4987851;28;20164;-63
2023/02/26 10:48:07;;;;;;;1.60;0.60;;;4.50;60.80;;;;;;4990559;28;20069;-61
2023/02/26 10:50:36;;;;;;;1.83;0.60;;;4.50;60.30;;;;;;4995451;28;20056;-63
2023/02/26 10:53:04;;;;;;;2.25;0.60;;;4.50;60.80;;;;;;4988091;28;20046;-62
2023/02/26 10:55:38;;;;;;;1.73;0.50;;;4.50;59.90;;;;;;4991276;28;20050;-62
2023/02/26 10:58:10;;;;;;;2.20;0.55;;;4.50;60.20;;;;;;4991499;28;20054;-63
2023/02/26 11:00:37;;;;;;;1.40;0.50;;;4.50;60.40;;;;;;4988909;28;20497;-63
2023/02/26 11:03:07;;;;;;;2.38;0.70;;;4.40;60.50;;;;;;4994577;28;20050;-63
2023/02/26 11:05:35;;;;;;;2.08;0.73;;;4.40;60.90;;;;;;4989205;28;20500;-62
2023/02/26 11:08:05;;;;;;;3.97;0.60;;;4.40;60.90;;;;;;4989876;28;20172;-63
2023/02/26 11:10:41;;;;;;;1.88;0.63;;;4.40;61.70;;;;;;4990956;28;20042;-62
2023/02/26 11:13:09;;;;;;;4.80;0.93;;;4.40;61.10;;;;;;4994154;28;20050;-63
2023/02/26 11:15:36;;;;;;;2.40;0.70;;;4.40;61.70;;;;;;4990606;28;20054;-62
2023/02/26 11:18:04;;;;;;;4.18;0.90;;;4.30;62.00;;;;;;4991831;28;20035;-64
2023/02/26 11:20:37;;;;;;;1.45;0.60;;;4.30;61.40;;;;;;4994098;28;20617;-62
2023/02/26 11:23:07;;;;;;;6.28;2.05;;;4.40;61.80;;;;;;4989797;28;20050;-62
2023/02/26 11:25:35;;;;;;;6.57;2.40;;;4.30;61.20;;;;;;4994542;28;20050;-64
2023/02/26 11:28:04;;;;;;;5.57;1.70;;;4.20;62.40;;;;;;4991414;28;20050;-62
2023/02/26 11:30:36;;;;;;;5.40;1.33;;;4.30;62.50;;;;;;4991763;28;20046;-63
2023/02/26 11:33:21;;;;;;;3.22;1.20;;;4.30;62.00;;;;;;4972964;28;20073;-63
2023/02/26 11:35:50;;;;;;;2.90;1.27;;;4.30;61.50;;;;;;4971871;28;20061;-62
2023/02/26 11:38:22;;;;;;;2.70;0.90;;;4.30;61.40;;;;;;4977440;28;20133;-62
2023/02/26 11:40:54;;;;;;;1.75;0.80;;;4.30;61.40;;;;;;4980297;28;21308;-63
2023/02/26 11:43:24;;;;;;;3.13;0.70;;;4.20;61.80;;;;;;4979581;28;20041;-63
2023/02/26 11:45:55;;;;;;;1.30;0.60;;;4.30;62.10;;;;;;4978253;28;20049;-62
2023/02/26 11:48:25;;;;;;;1.50;0.60;;;4.20;63.10;;;;;;4976986;28;20038;-61
2023/02/26 11:50:57;;;;;;;1.70;0.60;;;4.20;63.10;;;;;;4977590;28;20141;-61
2023/02/26 11:53:31;;;;;;;1.77;0.55;;;4.30;62.40;;;;;;4977663;28;20515;-63
2023/02/26 11:56:01;;;;;;;2.45;0.60;;;4.40;61.50;;;;;;4979561;28;20062;-62
2023/02/26 11:58:37;;;;;;;2.03;0.47;;;4.40;61.90;;;;;;4977055;28;20046;-62
2023/02/26 12:01:06;;;;;;;1.77;0.30;;;4.60;61.40;;;;;;4976103;28;20051;-61
2023/02/26 12:03:38;;;;;;;3.55;0.63;;;4.80;61.30;;;;;;4976480;28;20050;-63
2023/02/26 12:06:17;;;;;;;1.33;0.50;;;4.90;61.20;;;;;;4978186;28;20046;-63
2023/02/26 12:08:46;;;;;;;1.92;0.45;;;4.90;60.60;;;;;;4971617;28;20125;-62
2023/02/26 12:11:35;;;;;;;1.90;0.60;;;4.70;60.50;;;;;;4977463;28;20111;-62
2023/02/26 12:14:14;;;;;;;0.60;0.32;;;4.70;60.60;;;;;;4976657;28;20533;-62
2023/02/26 12:16:53;;;;;;;1.85;0.60;;;4.70;60.10;;;;;;4975803;28;20064;-61
2023/02/26 12:19:36;;;;;;;2.05;0.60;;;4.60;61.10;;;;;;4976758;28;20047;-62
2023/02/26 12:22:22;;;;;;;1.60;0.50;;;4.60;61.60;;;;;;4977654;28;20074;-62
2023/02/26 12:25:22;;;;;;;1.65;0.60;;;4.50;61.00;;;;;;4975910;28;20055;-62
2023/02/26 12:28:21;;;;;;;2.05;0.55;;;4.60;60.70;;;;;;4975927;28;20046;-62
2023/02/26 12:31:14;;;;;;;1.35;0.60;;;4.60;60.50;;;;;;4979163;28;20508;-61
2023/02/26 12:33:53;;;;;;;4.05;0.80;;;4.60;60.50;;;;;;5000910;28;20061;-62
2023/02/26 12:36:40;;;;;;;1.20;0.50;;;4.60;60.80;;;;;;4999003;28;20049;-62
2023/02/26 12:39:25;;;;;;;2.42;0.65;;;4.70;60.50;;;;;;5000558;28;20065;-62
2023/02/26 12:42:07;;;;;;;2.00;0.60;;;4.50;60.50;;;;;;5000690;28;20041;-62
2023/02/26 12:45:00;;;;;;;2.42;0.60;;;4.50;58.60;;;;;;5004580;28;20056;-63
2023/02/26 12:47:47;;;;;;;1.98;0.70;;;4.60;58.60;;;;;;5005322;28;20485;-62
2023/02/26 12:50:36;;;;;;;3.15;0.60;;;4.60;58.90;;;;;;5002895;28;20390;-62
2023/02/26 12:53:41;;;;;;;2.70;0.70;;;4.60;59.50;;;;;;5001375;28;20050;-62
2023/02/26 12:56:27;;;;;;;0.95;0.50;;;4.50;59.00;;;;;;4993778;28;20056;-63
2023/02/26 12:59:04;;;;;;;1.73;0.70;;;4.50;59.90;;;;;;5004222;28;20138;-62
2023/02/26 13:01:49;;;;;;;0.90;0.40;;;4.50;58.20;;;;;;5004768;28;20061;-63
2023/02/26 13:04:34;;;;;;;2.28;0.57;;;4.40;57.90;;;;;;5002396;28;20048;-63
2023/02/26 13:07:12;;;;;;;0.95;0.50;;;4.60;58.90;;;;;;5002244;28;20046;-64
2023/02/26 13:09:50;;;;;;;1.90;0.40;;;4.70;57.50;;;;;;5006674;28;20062;-63
2023/02/26 13:12:30;;;;;;;0.85;0.40;;;4.90;57.40;;;;;;4999177;28;20142;-61
2023/02/26 13:15:05;;;;;;;1.10;0.40;;;4.90;57.00;;;;;;4998938;28;20053;-62